Time;durP1;ratioP1;P1;durP2;ratioP2;P2;SDS_P1;SDS_P2;PMS_P1;PMS_P2;Temp;Humidity;BMP_temperature;BMP_pressure;BME280_temperature;BME280_humidity;BME280_pressure;Samples;Min_cycle;Max_cycle;Signal;HPM_P1;HPM_P2
2023/07/29 00:11:43;;;;;;;17.80;11.20;;;;;;;16.41;100.00;99619.95;681107;1262;139870;-77
2023/07/29 00:26:46;;;;;;;16.40;11.70;;;;;;;16.05;100.00;99630.83;679437;1262;140276;-76
2023/07/29 00:41:51;;;;;;;16.00;10.80;;;;;;;16.18;100.00;99624.55;679342;1263;140659;-77
2023/07/29 00:56:55;;;;;;;22.00;12.20;;;;;;;16.08;100.00;99641.11;681851;1262;141357;-77
2023/07/29 01:12:50;;;;;;;17.30;11.40;;;;;;;15.84;100.00;99654.75;676472;1259;140537;-79
2023/07/29 01:28:01;;;;;;;18.90;13.00;;;;;;;15.46;100.00;99656.83;677143;1262;140686;-78
2023/07/29 01:43:09;;;;;;;18.00;12.70;;;;;;;15.21;100.00;99662.05;676895;1262;139904;-78
2023/07/29 01:58:14;;;;;;;20.70;12.80;;;;;;;14.89;100.00;99675.45;680410;1262;139933;-76
2023/07/29 02:13:21;;;;;;;49.40;15.10;;;;;;;14.69;100.00;99690.92;679613;1261;141004;-76
2023/07/29 02:28:25;;;;;;;17.50;11.30;;;;;;;14.76;100.00;99693.03;676998;1259;141246;-76
2023/07/29 02:43:28;;;;;;;14.40;10.40;;;;;;;14.62;100.00;99699.63;681133;1262;141713;-76
2023/07/29 02:58:32;;;;;;;11.30;8.60;;;;;;;14.17;100.00;99700.01;679394;1262;139645;-76
2023/07/29 03:13:36;;;;;;;13.40;8.00;;;;;;;13.87;100.00;99709.91;680464;1275;141963;-79
2023/07/29 03:28:42;;;;;;;17.40;11.10;;;;;;;14.07;100.00;99720.38;680444;1262;141073;-79
2023/07/29 03:43:46;;;;;;;14.40;9.10;;;;;;;14.14;100.00;99735.23;678317;1262;141272;-76
2023/07/29 03:58:49;;;;;;;19.20;9.60;;;;;;;14.35;100.00;99740.13;679485;1262;140773;-78
2023/07/29 04:13:52;;;;;;;21.30;10.80;;;;;;;14.51;100.00;99748.31;679085;1265;139575;-77
2023/07/29 04:28:56;;;;;;;25.40;12.70;;;;;;;14.91;100.00;99748.58;681197;1265;141170;-77
2023/07/29 04:43:59;;;;;;;21.20;13.10;;;;;;;15.16;100.00;99757.13;680762;1262;140169;-76
2023/07/29 04:59:03;;;;;;;22.10;13.80;;;;;;;15.78;100.00;99749.98;680710;1262;141766;-76
2023/07/29 05:14:06;;;;;;;21.00;13.30;;;;;;;16.06;100.00;99755.88;681473;1263;140466;-76
2023/07/29 05:29:09;;;;;;;18.40;11.30;;;;;;;17.08;100.00;99768.91;679601;1260;141010;-77
2023/07/29 05:44:13;;;;;;;29.80;24.80;;;;;;;17.95;100.00;99779.84;679116;1262;139964;-77
2023/07/29 05:59:16;;;;;;;13.30;8.60;;;;;;;20.92;98.43;99791.06;681291;1260;140802;-77
2023/07/29 06:14:20;;;;;;;14.00;10.90;;;;;;;23.53;92.40;99786.90;680378;1263;140505;-77
2023/07/29 06:29:23;;;;;;;11.90;8.90;;;;;;;25.31;82.32;99793.45;681146;1262;141506;-77
2023/07/29 06:44:26;;;;;;;16.60;11.70;;;;;;;26.62;78.03;99799.51;680265;1263;139255;-76
2023/07/29 06:59:30;;;;;;;11.20;7.80;;;;;;;27.11;72.93;99807.74;681437;1263;139930;-77
2023/07/29 07:14:33;;;;;;;13.20;8.90;;;;;;;26.85;73.32;99804.38;681607;1262;140067;-78
2023/07/29 07:29:36;;;;;;;9.20;5.70;;;;;;;27.01;72.34;99793.80;681293;1262;140089;-78
2023/07/29 07:44:40;;;;;;;8.00;4.10;;;;;;;27.70;69.30;99796.86;680489;1262;139321;-79
2023/07/29 07:59:43;;;;;;;5.20;3.80;;;;;;;28.39;68.77;99783.10;679146;1264;138158;-82
2023/07/29 08:14:46;;;;;;;4.80;3.70;;;;;;;28.18;66.15;99779.15;679394;1264;138466;-77
2023/07/29 08:29:49;;;;;;;9.50;3.50;;;;;;;28.33;64.31;99779.89;679130;1264;138484;-75
2023/07/29 08:44:54;;;;;;;3.70;2.70;;;;;;;28.59;64.27;99765.61;679958;1264;138922;-77
2023/07/29 08:59:58;;;;;;;3.80;2.80;;;;;;;28.14;61.50;99757.13;680235;1267;139596;-77
2023/07/29 09:15:02;;;;;;;6.20;3.90;;;;;;;28.65;60.65;99751.10;680231;1263;139483;-77
2023/07/29 09:30:06;;;;;;;3.70;2.30;;;;;;;29.23;56.88;99754.64;680062;1269;139295;-79
2023/07/29 09:45:09;;;;;;;3.50;2.40;;;;;;;30.01;55.94;99734.48;679986;1267;139556;-77
2023/07/29 10:00:13;;;;;;;3.80;3.10;;;;;;;29.98;54.22;99730.83;678855;1264;139252;-77
2023/07/29 10:15:17;;;;;;;4.00;2.60;;;;;;;29.64;53.37;99732.88;679426;1270;139422;-76
2023/07/29 10:30:20;;;;;;;2.80;2.20;;;;;;;30.12;52.25;99720.52;678501;1270;138560;-77
2023/07/29 10:45:24;;;;;;;4.10;2.30;;;;;;;30.62;50.60;99721.23;677376;1267;139037;-77
2023/07/29 11:00:31;;;;;;;149.80;15.20;;;;;;;30.93;49.96;99720.52;676793;1270;139059;-76
2023/07/29 11:15:34;;;;;;;4.70;2.00;;;;;;;31.88;49.49;99699.42;675125;1267;139520;-76
2023/07/29 11:30:40;;;;;;;1.70;1.60;;;;;;;32.07;47.76;99680.33;677641;1273;138870;-76
2023/07/29 11:45:44;;;;;;;4.70;2.60;;;;;;;31.82;48.23;99675.10;678803;1264;142857;-75
2023/07/29 12:00:54;;;;;;;2.40;2.10;;;;;;;32.13;47.06;99665.34;678708;1268;139874;-76
2023/07/29 12:16:02;;;;;;;2.70;2.10;;;;;;;30.94;48.13;99651.19;679029;1267;140103;-76
2023/07/29 12:31:08;;;;;;;3.70;2.20;;;;;;;31.20;48.12;99622.09;679760;1264;139238;-76
2023/07/29 12:46:11;;;;;;;3.80;2.20;;;;;;;31.59;47.98;99610.91;679256;1267;140203;-75
2023/07/29 13:01:18;;;;;;;2.20;2.00;;;;;;;31.63;47.41;99592.75;679083;1270;139734;-77
2023/07/29 13:16:21;;;;;;;20.90;11.80;;;;;;;31.06;47.76;99567.91;679814;1267;139205;-76
2023/07/29 13:31:24;;;;;;;4.60;2.50;;;;;;;30.06;50.15;99558.70;674457;1267;139253;-76
2023/07/29 13:46:28;;;;;;;2.10;1.80;;;;;;;30.44;50.64;99542.42;674211;1268;139773;-77
2023/07/29 14:01:31;;;;;;;2.80;1.60;;;;;;;30.49;51.06;99538.17;673621;1279;138472;-76
2023/07/29 14:17:08;;;;;;;3.80;2.10;;;;;;;30.84;51.22;99520.38;676248;1274;139620;-75
2023/07/29 14:32:11;;;;;;;5.00;2.30;;;;;;;30.86;51.00;99505.30;675771;1265;138455;-77
2023/07/29 14:47:14;;;;;;;4.50;1.70;;;;;;;31.13;50.81;99482.12;675717;1265;139388;-76
2023/07/29 15:02:18;;;;;;;36.30;19.10;;;;;;;30.56;51.93;99455.58;675068;1267;138579;-76
2023/07/29 15:17:21;;;;;;;5.30;2.60;;;;;;;29.83;53.36;99444.76;673179;1267;139130;-78
2023/07/29 15:32:24;;;;;;;3.10;1.90;;;;;;;30.10;53.97;99432.30;676245;1265;139165;-76
2023/07/29 15:47:27;;;;;;;5.00;2.10;;;;;;;29.86;53.89;99428.02;673279;1270;141479;-76
2023/07/29 16:02:30;;;;;;;5.30;3.40;;;;;;;29.46;54.71;99413.77;677012;1280;139519;-75
2023/07/29 16:17:34;;;;;;;3.10;1.90;;;;;;;29.70;54.99;99399.37;674850;1267;139259;-78
2023/07/29 16:32:37;;;;;;;4.30;2.10;;;;;;;29.77;54.83;99392.28;675588;1270;139673;-77
2023/07/29 16:47:40;;;;;;;5.60;2.10;;;;;;;29.21;55.48;99383.91;674531;1267;138538;-78
2023/07/29 17:02:44;;;;;;;87.60;43.70;;;;;;;28.76;57.07;99391.52;679222;1267;138576;-78
2023/07/29 17:17:48;;;;;;;9.90;6.40;;;;;;;28.25;58.68;99386.73;675015;1268;140331;-76
2023/07/29 17:32:51;;;;;;;78.60;53.20;;;;;;;27.87;60.03;99369.55;678987;1267;139210;-76
2023/07/29 17:47:54;;;;;;;23.20;18.00;;;;;;;27.39;61.83;99375.00;678132;1269;139489;-76
2023/07/29 18:02:58;;;;;;;11.20;4.50;;;;;;;27.07;62.78;99384.22;678038;1269;140208;-76
2023/07/29 18:18:02;;;;;;;5.30;2.70;;;;;;;25.47;71.23;99482.66;678349;1268;139726;-76
2023/07/29 18:33:07;;;;;;;14.50;4.30;;;;;;;23.74;82.92;99516.16;679732;1269;138925;-77
2023/07/29 18:48:18;;;;;;;10.10;5.10;;;;;;;23.21;87.21;99465.00;678669;1268;140185;-76
2023/07/29 19:03:25;;;;;;;13.60;6.60;;;;;;;23.10;87.36;99435.63;679069;1267;139453;-77
2023/07/29 19:18:32;;;;;;;17.40;8.20;;;;;;;22.73;88.85;99396.76;679316;1268;140039;-76
2023/07/29 19:33:40;;;;;;;15.40;7.20;;;;;;;22.81;89.61;99469.33;680115;1268;139662;-74
2023/07/29 19:48:44;;;;;;;8.90;4.10;;;;;;;22.04;96.76;99512.07;679534;1277;141410;-76
2023/07/29 20:03:47;;;;;;;11.10;5.70;;;;;;;22.00;98.16;99493.23;677761;1270;140151;-76
2023/07/29 20:18:50;;;;;;;9.20;4.80;;;;;;;21.57;98.43;99480.39;676978;1279;141749;-75
2023/07/29 20:33:54;;;;;;;4.70;2.40;;;;;;;21.23;100.00;99483.48;677092;1267;139317;-74
2023/07/29 20:48:58;;;;;;;5.50;2.80;;;;;;;21.32;100.00;99430.91;677343;1267;139819;-76
2023/07/29 21:04:01;;;;;;;7.90;3.70;;;;;;;21.12;100.00;99369.67;679139;1270;140488;-76
2023/07/29 21:19:04;;;;;;;6.70;3.70;;;;;;;20.98;100.00;99367.64;679958;1278;141442;-77
2023/07/29 21:34:08;;;;;;;5.70;3.70;;;;;;;21.72;100.00;99377.54;679748;1267;140349;-76
2023/07/29 21:49:14;;;;;;;4.40;3.60;;;;;;;21.79;100.00;99355.77;678836;1267;139382;-76
2023/07/29 22:04:20;;;;;;;5.60;4.10;;;;;;;21.93;100.00;99352.91;679922;1264;140580;-78
2023/07/29 22:19:26;;;;;;;5.00;4.10;;;;;;;21.55;100.00;99364.49;679141;1264;139098;-76
2023/07/29 22:34:29;;;;;;;6.80;5.00;;;;;;;21.66;100.00;99373.23;680215;1267;140380;-78
2023/07/29 22:49:32;;;;;;;20.10;11.90;;;;;;;21.63;100.00;99381.99;679645;1267;140266;-77
2023/07/29 23:04:40;;;;;;;6.50;5.20;;;;;;;21.32;100.00;99403.86;677020;1267;140846;-80
2023/07/29 23:19:46;;;;;;;6.70;4.50;;;;;;;21.17;100.00;99428.28;679077;1269;141304;-79
2023/07/29 23:34:49;;;;;;;8.50;5.50;;;;;;;21.45;100.00;99448.00;676033;1267;140584;-77
2023/07/29 23:49:53;;;;;;;12.30;7.80;;;;;;;21.46;100.00;99443.80;676503;1264;140956;-77
